createdAt,value
2022-09-05T00:00:13.990Z,97596.00
2022-09-05T00:06:02.420Z,97597.00
2022-09-05T00:11:42.116Z,97588.00
2022-09-05T00:24:17.472Z,97582.00
2022-09-05T00:31:51.533Z,97583.00
2022-09-05T00:36:57.468Z,97575.00
2022-09-05T00:42:04.205Z,97572.00
2022-09-05T00:47:25.567Z,97567.00
2022-09-05T00:53:05.006Z,97560.00
2022-09-05T00:58:40.888Z,97560.00
2022-09-05T01:04:37.552Z,97552.00
2022-09-05T01:13:08.017Z,97573.00
2022-09-05T01:24:18.345Z,97570.00
2022-09-05T01:30:17.645Z,97568.00
2022-09-05T01:38:11.941Z,97566.00
2022-09-05T01:43:40.398Z,97567.00
2022-09-05T01:48:59.215Z,97567.00
2022-09-05T01:54:37.573Z,97570.00
2022-09-05T01:59:55.298Z,97563.00
2022-09-05T02:07:19.393Z,97572.00
2022-09-05T02:13:03.016Z,97573.00
2022-09-05T02:18:12.187Z,97563.00
2022-09-05T02:23:41.821Z,97556.00
2022-09-05T02:29:29.612Z,97570.00
2022-09-05T02:35:00.902Z,97568.00
2022-09-05T02:45:09.112Z,97565.00
2022-09-05T02:56:36.238Z,97554.00
2022-09-05T03:08:55.910Z,97561.00
2022-09-05T03:18:21.098Z,97543.00
2022-09-05T03:30:29.645Z,97547.00
2022-09-05T03:35:48.764Z,97536.00
2022-09-05T03:44:10.652Z,97549.00
2022-09-05T03:57:21.024Z,97542.00
2022-09-05T04:08:09.647Z,97538.00
2022-09-05T04:14:06.494Z,97548.00
2022-09-05T04:19:52.846Z,97558.00
2022-09-05T04:25:26.979Z,97551.00
2022-09-05T04:30:46.945Z,97552.00
2022-09-05T04:36:20.938Z,97557.00
2022-09-05T04:41:37.611Z,97557.00
2022-09-05T04:47:08.332Z,97553.00
2022-09-05T04:54:09.174Z,97559.00
2022-09-05T05:03:05.625Z,97562.00
2022-09-05T05:17:54.775Z,97559.00
2022-09-05T05:23:28.364Z,97566.00
2022-09-05T05:30:07.633Z,97580.00
2022-09-05T05:35:12.005Z,97586.00
2022-09-05T05:40:30.356Z,97587.00
2022-09-05T05:45:33.232Z,97601.00
2022-09-05T05:51:05.819Z,97592.00
2022-09-05T05:57:52.849Z,97596.00
2022-09-05T06:03:29.757Z,97595.00
2022-09-05T06:14:51.508Z,97609.00
2022-09-05T06:22:11.673Z,97616.00
2022-09-05T06:29:34.622Z,97615.00
2022-09-05T06:37:45.631Z,97619.00
2022-09-05T06:47:05.880Z,97625.00
2022-09-05T06:56:09.089Z,97624.00
2022-09-05T07:01:13.153Z,97632.00
2022-09-05T07:06:50.750Z,97635.00
2022-09-05T07:14:49.627Z,97636.00
2022-09-05T07:20:00.201Z,97637.00
2022-09-05T07:25:06.393Z,97634.00
2022-09-05T07:30:13.299Z,97639.00
2022-09-05T07:35:42.446Z,97643.00
2022-09-05T07:41:21.373Z,97647.00
2022-09-05T07:46:26.251Z,97647.00
2022-09-05T07:56:49.057Z,97640.00
2022-09-05T08:02:12.723Z,97645.00
2022-09-05T08:07:46.405Z,97651.00
2022-09-05T08:14:44.145Z,97641.00
2022-09-05T08:20:09.366Z,97640.00
2022-09-05T08:25:58.917Z,97644.00
2022-09-05T08:31:42.346Z,97642.00
2022-09-05T08:36:56.131Z,97641.00
2022-09-05T08:48:06.170Z,97633.00
2022-09-05T08:55:09.602Z,97638.00
2022-09-05T09:00:20.797Z,97626.00
2022-09-05T09:07:47.996Z,97640.00
2022-09-05T09:13:27.077Z,97633.00
2022-09-05T09:20:12.506Z,97629.00
2022-09-05T09:25:22.299Z,97640.00
2022-09-05T09:30:30.229Z,97637.00
2022-09-05T09:36:07.853Z,97630.00
2022-09-05T09:42:44.785Z,97619.00
2022-09-05T09:53:57.139Z,97618.00
2022-09-05T09:59:26.123Z,97608.00
2022-09-05T10:10:39.724Z,97615.00
2022-09-05T10:16:52.891Z,97610.00
2022-09-05T10:23:55.794Z,97609.00
2022-09-05T10:29:36.574Z,97592.00
2022-09-05T10:36:21.518Z,97589.00
2022-09-05T10:41:42.500Z,97577.00
2022-09-05T10:48:23.803Z,97575.00
2022-09-05T10:53:53.146Z,97571.00
2022-09-05T11:01:17.805Z,97560.00
2022-09-05T11:08:30.890Z,97546.00
2022-09-05T11:13:49.981Z,97542.00
2022-09-05T11:18:57.687Z,97535.00
2022-09-05T11:25:39.724Z,97533.00
2022-09-05T11:30:45.716Z,97525.00
2022-09-05T11:39:51.543Z,97523.00
2022-09-05T11:50:44.593Z,97520.00
2022-09-05T11:58:45.473Z,97508.00
2022-09-05T12:04:21.289Z,97508.00
2022-09-05T12:14:54.089Z,97513.00
2022-09-05T12:20:29.225Z,97507.00
2022-09-05T12:27:36.058Z,97508.00
2022-09-05T12:36:04.504Z,97492.00
2022-09-05T12:41:46.169Z,97493.00
2022-09-05T12:47:23.172Z,97482.00
2022-09-05T12:52:36.394Z,97475.00
2022-09-05T13:02:57.033Z,97469.00
2022-09-05T13:08:20.304Z,97475.00
2022-09-05T13:14:59.360Z,97469.00
2022-09-05T13:20:18.104Z,97471.00
2022-09-05T13:25:26.365Z,97461.00
2022-09-05T13:31:13.759Z,97467.00
2022-09-05T13:43:08.542Z,97464.00
2022-09-05T13:54:50.261Z,97441.00
2022-09-05T14:02:28.842Z,97432.00
2022-09-05T14:08:08.620Z,97432.00
2022-09-05T14:13:27.623Z,97430.00
2022-09-05T14:21:14.940Z,97430.00
2022-09-05T14:26:28.546Z,97414.00
2022-09-05T14:37:34.935Z,97420.00
2022-09-05T14:45:15.580Z,97410.00
2022-09-05T14:50:36.750Z,97391.00
2022-09-05T14:55:39.642Z,97387.00
2022-09-05T15:02:58.393Z,97392.00
2022-09-05T15:08:26.993Z,97392.00
2022-09-05T15:16:26.650Z,97374.00
2022-09-05T15:21:38.509Z,97368.00
2022-09-05T15:27:40.374Z,97367.00
2022-09-05T15:32:43.903Z,97367.00
2022-09-05T15:37:49.626Z,97351.00
2022-09-05T15:43:01.855Z,97350.00
2022-09-05T15:48:20.964Z,97360.00
2022-09-05T15:53:28.409Z,97347.00
2022-09-05T15:58:53.472Z,97346.00
2022-09-05T16:09:16.622Z,97352.00
2022-09-05T16:23:13.707Z,97339.00
2022-09-05T16:28:42.560Z,97336.00
2022-09-05T16:33:46.600Z,97320.00
2022-09-05T16:39:14.496Z,97315.00
2022-09-05T16:44:51.823Z,97318.00
2022-09-05T16:50:34.570Z,97323.00
2022-09-05T16:55:45.632Z,97310.00
2022-09-05T17:01:19.497Z,97313.00
2022-09-05T17:06:54.410Z,97300.00
2022-09-05T17:12:00.608Z,97302.00
2022-09-05T17:18:07.533Z,97293.00
2022-09-05T17:26:29.237Z,97293.00
2022-09-05T17:36:20.290Z,97277.00
2022-09-05T17:41:53.915Z,97284.00
2022-09-05T17:47:17.864Z,97271.00
2022-09-05T17:52:22.145Z,97275.00
2022-09-05T17:57:34.358Z,97282.00
2022-09-05T18:02:55.918Z,97295.00
2022-09-05T18:07:57.425Z,97301.00
2022-09-05T18:13:32.278Z,97312.00
2022-09-05T18:19:03.719Z,97315.00
2022-09-05T18:25:28.163Z,97307.00
2022-09-05T18:30:33.239Z,97314.00
2022-09-05T18:35:38.326Z,97330.00
2022-09-05T18:41:01.227Z,97332.00
2022-09-05T18:46:13.703Z,97336.00
2022-09-05T18:51:17.587Z,97336.00
2022-09-05T18:57:12.063Z,97337.00
2022-09-05T19:02:58.664Z,97325.00
2022-09-05T19:08:06.388Z,97326.00
2022-09-05T19:13:23.180Z,97317.00
2022-09-05T19:18:33.135Z,97317.00
2022-09-05T19:23:42.951Z,97300.00
2022-09-05T19:32:59.808Z,97309.00
2022-09-05T19:47:29.818Z,97302.00
2022-09-05T19:53:06.755Z,97302.00
2022-09-05T19:58:20.035Z,97293.00
2022-09-05T20:03:22.060Z,97289.00
2022-09-05T20:08:34.320Z,97278.00
2022-09-05T20:13:35.325Z,97296.00
2022-09-05T20:18:39.526Z,97284.00
2022-09-05T20:23:48.472Z,97293.00
2022-09-05T20:29:00.866Z,97296.00
2022-09-05T20:34:50.177Z,97284.00
2022-09-05T20:43:37.020Z,97295.00
2022-09-05T20:54:17.179Z,97293.00
2022-09-05T20:59:41.054Z,97293.00
2022-09-05T21:04:54.859Z,97293.00
2022-09-05T21:10:01.929Z,97283.00
2022-09-05T21:15:07.360Z,97279.00
2022-09-05T21:21:10.336Z,97285.00
2022-09-05T21:26:30.096Z,97286.00
2022-09-05T21:31:32.036Z,97290.00
2022-09-05T21:36:34.713Z,97284.00
2022-09-05T21:41:36.413Z,97283.00
2022-09-05T21:47:48.044Z,97271.00
2022-09-05T21:53:01.828Z,97275.00
2022-09-05T22:00:10.946Z,97273.00
2022-09-05T22:05:19.486Z,97254.00
2022-09-05T22:10:21.334Z,97255.00
2022-09-05T22:15:28.969Z,97259.00
2022-09-05T22:20:30.600Z,97246.00
2022-09-05T22:25:34.971Z,97244.00
2022-09-05T22:30:35.873Z,97237.00
2022-09-05T22:35:38.385Z,97230.00
2022-09-05T22:40:40.306Z,97221.00
2022-09-05T22:45:41.295Z,97218.00
2022-09-05T22:50:42.354Z,97227.00
2022-09-05T22:55:43.329Z,97233.00
2022-09-05T23:00:44.273Z,97229.00
2022-09-05T23:05:45.732Z,97231.00
2022-09-05T23:10:46.711Z,97233.00
2022-09-05T23:15:47.597Z,97245.00
2022-09-05T23:20:48.533Z,97236.00
2022-09-05T23:25:49.418Z,97246.00
2022-09-05T23:30:50.286Z,97248.00
2022-09-05T23:35:51.473Z,97247.00
2022-09-05T23:40:59.110Z,97243.00
2022-09-05T23:46:01.157Z,97235.00
2022-09-05T23:51:10.353Z,97236.00
2022-09-05T23:56:11.498Z,97241.00
